Terminal Aerodrome Forecast
Issued by NWS Wilmington, OH

Home | Current Version | Previous Version | Text Only | Print | Product List | Glossary On
Versions: 1 2 3 4 5 6 7 8 9 10 11 12 13 14 15 16 17 18 19 20 21 22 23
000
FTUS41 KILN 070500 RRA
TAFCVG
TAF
KCVG 070545Z 0706/0812 19006KT 5SM BR SCT050 BKN250
     FM071300 22012KT P6SM BKN035
     FM071700 22012G20KT P6SM VCTS BKN040CB
      TEMPO 0720/0724 5SM -TSRA BR OVC025CB
     FM080000 24010KT 5SM -SHRA BR VCTS OVC035CB
     FM081000 26010KT 5SM -SHRA BR OVC025=

USA.gov is the U.S. government's official web portal to all federal, state and local government web resources and services.